createdAt,value
2018-03-24T00:01:09.458Z,22.27
2018-03-24T00:03:38.970Z,23.70
2018-03-24T00:06:08.411Z,22.40
2018-03-24T00:08:37.858Z,21.93
2018-03-24T00:11:07.326Z,22.80
2018-03-24T00:13:36.766Z,23.10
2018-03-24T00:16:06.366Z,23.23
2018-03-24T00:18:35.802Z,22.57
2018-03-24T00:21:05.266Z,23.67
2018-03-24T00:23:34.701Z,22.43
2018-03-24T00:26:04.110Z,23.73
2018-03-24T00:28:33.903Z,23.77
2018-03-24T00:31:03.746Z,23.15
2018-03-24T00:33:33.507Z,24.25
2018-03-24T00:36:03.422Z,23.48
2018-03-24T00:38:33.282Z,23.30
2018-03-24T00:41:03.195Z,21.92
2018-03-24T00:43:32.986Z,23.73
2018-03-24T00:46:02.746Z,24.65
2018-03-24T00:48:32.502Z,25.10
2018-03-24T00:51:02.069Z,22.75
2018-03-24T00:53:31.843Z,23.50
2018-03-24T00:56:01.590Z,24.37
2018-03-24T00:58:31.322Z,22.95
2018-03-24T01:01:01.074Z,24.48
2018-03-24T01:03:30.809Z,24.63
2018-03-24T01:06:00.541Z,24.60
2018-03-24T01:08:30.255Z,24.27
2018-03-24T01:11:00.006Z,23.98
2018-03-24T01:13:29.873Z,24.37
2018-03-24T01:15:59.725Z,24.63
2018-03-24T01:18:29.458Z,24.15
2018-03-24T01:20:59.170Z,23.42
2018-03-24T01:23:28.981Z,23.60
2018-03-24T01:25:58.711Z,24.48
2018-03-24T01:28:28.429Z,25.12
2018-03-24T01:30:58.166Z,24.15
2018-03-24T01:33:27.913Z,21.87
2018-03-24T01:35:57.661Z,23.48
2018-03-24T01:38:27.462Z,25.00
2018-03-24T01:40:57.187Z,22.90
2018-03-24T01:43:26.920Z,22.90
2018-03-24T01:45:56.694Z,25.35
2018-03-24T01:48:26.508Z,25.35
2018-03-24T01:50:56.252Z,24.17
2018-03-24T01:53:31.745Z,24.30
2018-03-24T01:56:01.457Z,25.75
2018-03-24T01:58:31.191Z,24.25
2018-03-24T02:01:00.714Z,24.60
2018-03-24T02:03:30.450Z,25.08
2018-03-24T02:06:00.170Z,23.60
2018-03-24T02:08:29.902Z,24.52
2018-03-24T02:10:59.618Z,23.33
2018-03-24T02:13:29.437Z,23.67
2018-03-24T02:15:59.169Z,24.08
2018-03-24T02:18:28.901Z,24.48
2018-03-24T02:21:05.099Z,23.60
2018-03-24T02:23:34.841Z,22.20
2018-03-24T02:26:04.393Z,22.58
2018-03-24T02:28:34.196Z,21.75
2018-03-24T02:31:03.868Z,23.27
2018-03-24T02:33:33.598Z,24.08
2018-03-24T02:36:03.335Z,24.05
2018-03-24T02:38:33.306Z,24.77
2018-03-24T02:41:03.064Z,27.23
2018-03-24T02:43:32.784Z,26.80
2018-03-24T02:46:02.512Z,24.37
2018-03-24T02:48:32.222Z,25.67
2018-03-24T02:51:01.991Z,25.77
2018-03-24T02:53:31.765Z,26.52
2018-03-24T02:56:01.489Z,26.08
2018-03-24T02:58:31.439Z,26.52
2018-03-24T03:01:01.158Z,25.65
2018-03-24T03:03:30.883Z,23.60
2018-03-24T03:06:00.627Z,23.77
2018-03-24T03:08:30.361Z,25.00
2018-03-24T03:11:00.086Z,24.40
2018-03-24T03:13:29.914Z,23.60
2018-03-24T03:15:59.439Z,25.30
2018-03-24T03:18:29.221Z,24.00
2018-03-24T03:20:58.966Z,27.17
2018-03-24T03:23:28.870Z,25.40
2018-03-24T03:25:58.718Z,25.55
2018-03-24T03:28:28.566Z,24.23
2018-03-24T03:31:12.986Z,26.05
2018-03-24T03:33:42.702Z,26.08
2018-03-24T03:36:12.406Z,26.15
2018-03-24T03:38:42.145Z,24.65
2018-03-24T03:41:11.872Z,25.55
2018-03-24T03:43:41.582Z,25.80
2018-03-24T03:46:11.420Z,26.52
2018-03-24T03:48:41.126Z,27.17
2018-03-24T03:51:10.842Z,26.25
2018-03-24T03:53:40.581Z,28.73
2018-03-24T03:56:10.282Z,25.67
2018-03-24T03:58:40.010Z,27.52
2018-03-24T04:01:09.390Z,26.15
2018-03-24T04:03:39.182Z,24.87
2018-03-24T04:06:08.905Z,25.67
2018-03-24T04:08:38.623Z,25.42
2018-03-24T04:11:08.346Z,26.00
2018-03-24T04:13:38.057Z,26.30
2018-03-24T04:16:07.766Z,26.60
2018-03-24T04:18:37.467Z,26.65
2018-03-24T04:21:07.195Z,25.35
2018-03-24T04:23:36.905Z,24.83
2018-03-24T04:26:06.622Z,24.80
2018-03-24T04:28:36.314Z,25.37
2018-03-24T04:31:06.043Z,25.02
2018-03-24T04:33:35.746Z,26.58
2018-03-24T04:36:05.508Z,26.50
2018-03-24T04:38:35.362Z,26.00
2018-03-24T04:41:05.098Z,27.45
2018-03-24T04:43:34.818Z,26.75
2018-03-24T04:46:04.554Z,26.42
2018-03-24T04:48:34.290Z,25.65
2018-03-24T04:51:04.198Z,26.45
2018-03-24T04:53:33.923Z,26.58
2018-03-24T04:56:03.615Z,25.35
2018-03-24T04:58:33.353Z,24.23
2018-03-24T05:01:03.310Z,24.55
2018-03-24T05:03:32.882Z,25.05
2018-03-24T05:06:02.670Z,26.90
2018-03-24T05:08:32.395Z,26.83
2018-03-24T05:11:02.126Z,26.87
2018-03-24T05:13:31.834Z,26.55
2018-03-24T05:16:01.629Z,26.87
2018-03-24T05:18:31.350Z,26.80
2018-03-24T05:21:01.074Z,27.85
2018-03-24T05:23:30.830Z,25.60
2018-03-24T05:26:00.678Z,27.58
2018-03-24T05:28:30.492Z,27.65
2018-03-24T05:31:00.215Z,27.10
2018-03-24T05:33:29.926Z,26.45
2018-03-24T05:35:59.658Z,26.12
2018-03-24T05:38:29.457Z,25.88
2018-03-24T05:40:59.437Z,26.98
2018-03-24T05:43:29.185Z,28.05
2018-03-24T05:45:59.017Z,27.60
2018-03-24T05:48:28.816Z,29.30
2018-03-24T05:50:58.665Z,29.10
2018-03-24T05:53:28.386Z,29.37
2018-03-24T05:55:58.134Z,29.75
2018-03-24T05:58:27.877Z,29.17
2018-03-24T06:00:57.784Z,29.87
2018-03-24T06:03:27.518Z,29.20
2018-03-24T06:05:57.242Z,29.15
2018-03-24T06:08:26.959Z,30.40
2018-03-24T06:10:56.684Z,29.40
2018-03-24T06:13:26.463Z,29.15
2018-03-24T06:15:56.178Z,31.40
2018-03-24T06:18:25.917Z,30.27
2018-03-24T06:20:55.624Z,32.67
2018-03-24T06:23:25.358Z,29.92
2018-03-24T06:25:55.118Z,32.03
2018-03-24T06:28:24.874Z,32.92
2018-03-24T06:30:59.318Z,31.12
2018-03-24T06:33:29.041Z,32.85
2018-03-24T06:36:01.172Z,33.95
2018-03-24T06:38:30.974Z,32.05
2018-03-24T06:41:00.691Z,31.05
2018-03-24T06:43:30.414Z,32.85
2018-03-24T06:46:00.122Z,35.50
2018-03-24T06:48:29.851Z,34.25
2018-03-24T06:50:59.576Z,38.03
2018-03-24T06:53:29.297Z,32.22
2018-03-24T06:55:59.011Z,35.60
2018-03-24T06:58:28.730Z,34.58
2018-03-24T07:00:58.558Z,32.97
2018-03-24T07:03:28.537Z,33.53
2018-03-24T07:05:58.278Z,35.30
2018-03-24T07:08:28.081Z,35.63
2018-03-24T07:10:57.993Z,35.63
2018-03-24T07:13:27.907Z,124.38
2018-03-24T07:15:57.646Z,168.68
2018-03-24T07:18:27.374Z,180.15
2018-03-24T07:20:57.150Z,138.30
2018-03-24T07:23:26.861Z,50.03
2018-03-24T07:25:56.590Z,90.28
2018-03-24T07:28:26.478Z,125.53
2018-03-24T07:30:56.362Z,87.95
2018-03-24T07:33:26.071Z,78.93
2018-03-24T07:35:55.812Z,98.75
2018-03-24T07:38:25.550Z,47.75
2018-03-24T07:40:55.287Z,79.93
2018-03-24T07:43:25.069Z,47.50
2018-03-24T07:45:54.533Z,46.13
2018-03-24T07:48:24.344Z,45.90
2018-03-24T07:50:54.076Z,70.57
2018-03-24T07:53:23.814Z,41.20
2018-03-24T07:55:53.257Z,43.33
2018-03-24T07:58:23.026Z,43.35
2018-03-24T08:00:52.469Z,61.80
2018-03-24T08:03:22.202Z,51.45
2018-03-24T08:05:51.951Z,38.97
2018-03-24T08:08:21.438Z,48.20
2018-03-24T08:10:51.078Z,62.00
2018-03-24T08:13:20.799Z,33.95
2018-03-24T08:15:50.254Z,46.23
2018-03-24T08:18:20.123Z,36.25
2018-03-24T08:20:49.604Z,38.77
2018-03-24T08:23:19.094Z,34.87
2018-03-24T08:25:48.553Z,33.77
2018-03-24T08:28:17.994Z,34.80
2018-03-24T08:30:47.452Z,35.10
2018-03-24T08:33:16.949Z,37.80
2018-03-24T08:35:46.479Z,28.80
2018-03-24T08:38:15.924Z,24.27
2018-03-24T08:40:45.393Z,28.57
2018-03-24T08:43:14.885Z,33.40
2018-03-24T08:45:44.335Z,26.00
2018-03-24T08:48:13.774Z,24.63
2018-03-24T08:50:43.239Z,25.97
2018-03-24T08:53:12.682Z,23.50
2018-03-24T08:55:42.183Z,22.60
2018-03-24T08:58:11.623Z,19.93
2018-03-24T09:00:41.075Z,22.67
2018-03-24T09:03:10.507Z,22.03
2018-03-24T09:05:39.954Z,19.30
2018-03-24T09:08:09.398Z,20.40
2018-03-24T09:10:38.858Z,19.20
2018-03-24T09:13:09.033Z,21.80
2018-03-24T09:15:38.470Z,19.60
2018-03-24T09:18:07.935Z,19.47
2018-03-24T09:20:37.389Z,21.60
2018-03-24T09:23:06.862Z,18.80
2018-03-24T09:25:36.286Z,19.33
2018-03-24T09:28:05.748Z,19.07
2018-03-24T09:30:35.233Z,18.77
2018-03-24T09:33:04.746Z,19.23
2018-03-24T09:35:34.181Z,20.13
2018-03-24T09:38:03.639Z,19.80
2018-03-24T09:40:33.102Z,16.70
2018-03-24T09:43:02.551Z,15.33
2018-03-24T09:45:32.209Z,16.73
2018-03-24T09:48:01.707Z,17.10
2018-03-24T09:50:31.359Z,15.40
2018-03-24T09:53:00.815Z,15.57
2018-03-24T09:55:30.285Z,14.17
2018-03-24T09:57:59.714Z,13.87
2018-03-24T10:00:29.210Z,15.60
2018-03-24T10:02:58.450Z,15.37
2018-03-24T10:05:27.714Z,15.23
2018-03-24T10:07:57.142Z,13.00
2018-03-24T10:10:26.593Z,12.30
2018-03-24T10:12:55.842Z,11.77
2018-03-24T10:15:25.296Z,12.00
2018-03-24T10:17:54.734Z,11.60
2018-03-24T10:20:23.948Z,12.20
2018-03-24T10:22:58.959Z,13.33
2018-03-24T10:25:28.414Z,13.40
2018-03-24T10:27:57.874Z,13.20
2018-03-24T10:30:26.966Z,12.40
2018-03-24T10:32:56.427Z,12.07
2018-03-24T10:35:25.916Z,10.90
2018-03-24T10:38:00.362Z,12.50
2018-03-24T10:40:29.804Z,12.00
2018-03-24T10:43:04.678Z,12.97
2018-03-24T10:45:34.125Z,13.43
2018-03-24T10:48:03.584Z,13.07
2018-03-24T10:50:33.023Z,11.20
2018-03-24T10:53:02.490Z,11.30
2018-03-24T10:55:31.942Z,11.23
2018-03-24T10:58:01.432Z,9.70
2018-03-24T11:00:32.911Z,11.73
2018-03-24T11:03:02.427Z,11.90
2018-03-24T11:05:32.058Z,12.13
2018-03-24T11:08:01.532Z,10.13
2018-03-24T11:10:30.994Z,10.80
2018-03-24T11:13:00.455Z,11.50
2018-03-24T11:15:29.918Z,9.93
2018-03-24T11:17:59.370Z,9.90
2018-03-24T11:20:28.822Z,11.33
2018-03-24T11:22:58.306Z,10.73
2018-03-24T11:25:27.763Z,10.47
2018-03-24T11:27:57.206Z,10.07
2018-03-24T11:30:26.659Z,12.20
2018-03-24T11:32:56.128Z,11.23
2018-03-24T11:35:25.598Z,11.50
2018-03-24T11:37:55.038Z,10.73
2018-03-24T11:40:24.493Z,11.50
2018-03-24T11:42:53.952Z,10.83
2018-03-24T11:45:23.409Z,10.00
2018-03-24T11:47:52.870Z,10.90
2018-03-24T11:50:22.326Z,12.30
2018-03-24T11:52:51.766Z,10.70
2018-03-24T11:55:20.910Z,11.50
2018-03-24T11:57:50.414Z,11.07
2018-03-24T12:00:19.857Z,10.60
2018-03-24T12:02:49.366Z,11.50
2018-03-24T12:05:19.017Z,11.13
2018-03-24T12:07:48.450Z,11.77
2018-03-24T12:10:17.882Z,11.50
2018-03-24T12:12:47.348Z,11.87
2018-03-24T12:15:16.811Z,11.50
2018-03-24T12:17:46.330Z,12.97
2018-03-24T12:20:15.774Z,13.57
2018-03-24T12:22:45.340Z,12.97
2018-03-24T12:25:14.783Z,12.23
2018-03-24T12:27:44.278Z,12.80
2018-03-24T12:30:13.718Z,10.77
2018-03-24T12:32:43.207Z,11.80
2018-03-24T12:35:12.650Z,11.30
2018-03-24T12:37:42.111Z,10.90
2018-03-24T12:40:11.582Z,11.90
2018-03-24T12:42:41.062Z,12.20
2018-03-24T12:45:10.495Z,12.13
2018-03-24T12:47:39.922Z,12.13
2018-03-24T12:50:09.425Z,13.37
2018-03-24T12:52:39.005Z,12.77
2018-03-24T12:55:08.498Z,13.67
2018-03-24T12:57:37.934Z,12.67
2018-03-24T13:00:07.396Z,13.73
2018-03-24T13:02:36.933Z,11.73
2018-03-24T13:05:06.437Z,13.87
2018-03-24T13:07:35.889Z,13.20
2018-03-24T13:10:05.330Z,12.63
2018-03-24T13:12:34.790Z,12.20
2018-03-24T13:15:04.223Z,11.57
2018-03-24T13:17:33.720Z,12.50
2018-03-24T13:20:03.180Z,13.77
2018-03-24T13:22:32.631Z,14.30
2018-03-24T13:25:02.104Z,14.10
2018-03-24T13:27:31.562Z,13.40
2018-03-24T13:30:01.007Z,14.70
2018-03-24T13:32:30.458Z,12.90
2018-03-24T13:34:59.896Z,15.70
2018-03-24T13:37:29.371Z,13.07
2018-03-24T13:39:58.919Z,19.43
2018-03-24T13:42:28.392Z,13.20
2018-03-24T13:44:57.826Z,13.97
2018-03-24T13:47:27.330Z,13.67
2018-03-24T13:49:56.809Z,24.73
2018-03-24T13:52:26.250Z,15.10
2018-03-24T13:54:55.731Z,15.07
2018-03-24T13:57:25.184Z,14.43
2018-03-24T13:59:54.654Z,14.83
2018-03-24T14:02:24.150Z,14.70
2018-03-24T14:04:53.590Z,14.53
2018-03-24T14:07:23.965Z,13.93
2018-03-24T14:09:53.412Z,12.80
2018-03-24T14:12:22.868Z,14.27
2018-03-24T14:14:53.848Z,14.70
2018-03-24T14:17:23.311Z,14.20
2018-03-24T14:19:52.757Z,14.10
2018-03-24T14:22:22.194Z,14.30
2018-03-24T14:24:51.659Z,13.43
2018-03-24T14:27:21.146Z,15.50
2018-03-24T14:29:50.597Z,14.60
2018-03-24T14:32:20.058Z,14.00
2018-03-24T14:34:49.534Z,13.83
2018-03-24T14:37:19.100Z,12.43
2018-03-24T14:39:48.526Z,14.60
2018-03-24T14:42:17.966Z,13.37
2018-03-24T14:44:47.418Z,16.23
2018-03-24T14:47:16.860Z,14.17
2018-03-24T14:49:46.338Z,15.00
2018-03-24T14:52:15.820Z,14.93
2018-03-24T14:54:45.254Z,14.63
2018-03-24T14:57:14.696Z,15.10
2018-03-24T14:59:44.178Z,14.60
2018-03-24T15:02:13.626Z,15.70
2018-03-24T15:04:43.106Z,14.43
2018-03-24T15:07:12.543Z,14.50
2018-03-24T15:09:42.001Z,15.60
2018-03-24T15:12:11.459Z,16.30
2018-03-24T15:14:40.902Z,15.07
2018-03-24T15:17:10.356Z,17.63
2018-03-24T15:19:39.815Z,15.83
2018-03-24T15:22:09.284Z,14.40
2018-03-24T15:24:38.731Z,14.43
2018-03-24T15:27:08.186Z,15.70
2018-03-24T15:29:43.122Z,15.53
2018-03-24T15:32:18.177Z,14.90
2018-03-24T15:34:53.198Z,15.20
2018-03-24T15:37:22.666Z,15.60
2018-03-24T15:39:52.126Z,16.40
2018-03-24T15:42:21.590Z,15.07
2018-03-24T15:44:51.042Z,16.03
2018-03-24T15:47:20.517Z,16.30
2018-03-24T15:49:49.970Z,15.50
2018-03-24T15:52:19.426Z,15.80
2018-03-24T15:54:48.885Z,17.00
2018-03-24T15:57:18.334Z,16.60
2018-03-24T15:59:47.833Z,15.70
2018-03-24T16:02:17.354Z,15.10
2018-03-24T16:04:46.831Z,13.53
2018-03-24T16:07:16.282Z,15.00
2018-03-24T16:09:45.938Z,14.07
2018-03-24T16:12:15.370Z,22.00
2018-03-24T16:14:44.807Z,16.50
2018-03-24T16:17:14.387Z,15.80
2018-03-24T16:19:43.817Z,15.73
2018-03-24T16:22:13.283Z,15.07
2018-03-24T16:24:42.724Z,15.20
2018-03-24T16:27:12.170Z,15.80
2018-03-24T16:29:41.603Z,14.33
2018-03-24T16:32:11.169Z,14.57
2018-03-24T16:34:40.601Z,14.30
2018-03-24T16:37:10.074Z,13.60
2018-03-24T16:39:39.503Z,15.10
2018-03-24T16:42:08.961Z,12.80
2018-03-24T16:44:38.476Z,13.00
2018-03-24T16:47:07.926Z,19.70
2018-03-24T16:49:37.416Z,14.57
2018-03-24T16:52:07.079Z,14.03
2018-03-24T16:54:36.605Z,14.13
2018-03-24T16:57:06.077Z,13.60
2018-03-24T16:59:35.552Z,13.60
2018-03-24T17:02:05.000Z,14.47
2018-03-24T17:04:34.455Z,12.67
2018-03-24T17:07:03.895Z,13.10
2018-03-24T17:09:33.362Z,12.93
2018-03-24T17:12:02.861Z,12.87
2018-03-24T17:14:32.309Z,11.80
2018-03-24T17:17:01.826Z,14.20
2018-03-24T17:19:31.270Z,12.77
2018-03-24T17:22:00.751Z,14.10
2018-03-24T17:24:30.205Z,13.00
2018-03-24T17:26:59.736Z,12.67
2018-03-24T17:29:29.202Z,12.50
2018-03-24T17:31:58.899Z,12.37
2018-03-24T17:34:28.378Z,14.23
2018-03-24T17:36:57.838Z,16.03
2018-03-24T17:39:27.282Z,14.37
2018-03-24T17:41:56.741Z,14.00
2018-03-24T17:44:26.252Z,14.33
2018-03-24T17:46:55.890Z,12.57
2018-03-24T17:49:25.411Z,11.93
2018-03-24T17:51:55.153Z,12.27
2018-03-24T17:54:24.581Z,12.50
2018-03-24T17:56:54.166Z,12.70
2018-03-24T17:59:23.622Z,13.10
2018-03-24T18:01:53.062Z,13.07
2018-03-24T18:04:22.530Z,13.37
2018-03-24T18:06:52.014Z,12.43
2018-03-24T18:09:21.469Z,12.10
2018-03-24T18:11:50.922Z,12.00
2018-03-24T18:14:20.375Z,12.97
2018-03-24T18:16:49.826Z,13.20
2018-03-24T18:19:19.361Z,13.37
2018-03-24T18:21:48.820Z,13.43
2018-03-24T18:24:18.282Z,13.60
2018-03-24T18:26:47.745Z,13.63
2018-03-24T18:29:17.201Z,14.00
2018-03-24T18:31:46.750Z,13.40
2018-03-24T18:34:16.325Z,14.23
2018-03-24T18:36:45.949Z,12.50
2018-03-24T18:39:15.063Z,13.47
2018-03-24T18:41:45.310Z,14.60
2018-03-24T18:44:15.052Z,13.20
2018-03-24T18:46:44.376Z,13.70
2018-03-24T18:49:13.630Z,14.43
2018-03-24T18:51:43.082Z,13.97
2018-03-24T18:54:12.608Z,15.17
2018-03-24T18:56:41.699Z,14.00
2018-03-24T18:59:11.166Z,14.57
2018-03-24T19:01:40.625Z,14.17
2018-03-24T19:04:10.286Z,14.93
2018-03-24T19:06:39.764Z,14.73
2018-03-24T19:09:09.311Z,15.53
2018-03-24T19:11:38.997Z,14.57
2018-03-24T19:14:08.443Z,15.70
2018-03-24T19:16:37.896Z,17.13
2018-03-24T19:19:07.483Z,15.07
2018-03-24T19:21:37.087Z,14.20
2018-03-24T19:24:06.617Z,16.03
2018-03-24T19:26:36.072Z,15.30
2018-03-24T19:29:05.529Z,15.47
2018-03-24T19:31:35.174Z,14.90
2018-03-24T19:34:04.665Z,15.80
2018-03-24T19:36:34.119Z,15.10
2018-03-24T19:39:03.039Z,15.50
2018-03-24T19:41:32.526Z,15.30
2018-03-24T19:44:01.983Z,14.77
2018-03-24T19:46:31.429Z,17.00
2018-03-24T19:49:00.878Z,15.33
2018-03-24T19:51:30.325Z,14.80
2018-03-24T19:53:59.802Z,15.97
2018-03-24T19:56:29.262Z,15.27
2018-03-24T19:58:58.726Z,14.13
2018-03-24T20:01:28.210Z,14.73
2018-03-24T20:03:57.694Z,16.07
2018-03-24T20:06:27.155Z,15.10
2018-03-24T20:08:56.626Z,16.33
2018-03-24T20:11:26.183Z,15.60
2018-03-24T20:13:55.662Z,15.67
2018-03-24T20:16:25.152Z,15.67
2018-03-24T20:18:54.761Z,17.10
2018-03-24T20:21:24.214Z,15.87
2018-03-24T20:23:53.681Z,16.97
2018-03-24T20:26:23.155Z,16.10
2018-03-24T20:28:52.618Z,17.13
2018-03-24T20:31:22.102Z,17.40
2018-03-24T20:33:51.563Z,16.63
2018-03-24T20:36:21.015Z,16.60
2018-03-24T20:38:50.497Z,18.97
2018-03-24T20:41:19.932Z,18.37
2018-03-24T20:43:49.425Z,20.33
2018-03-24T20:46:19.107Z,21.00
2018-03-24T20:48:48.887Z,20.33
2018-03-24T20:51:18.028Z,20.27
2018-03-24T20:53:47.489Z,23.07
2018-03-24T20:56:16.963Z,18.70
2018-03-24T20:58:46.420Z,17.77
2018-03-24T21:01:15.864Z,18.57
2018-03-24T21:03:45.333Z,20.10
2018-03-24T21:06:14.797Z,19.83
2018-03-24T21:08:44.258Z,19.20
2018-03-24T21:11:13.922Z,20.87
2018-03-24T21:13:43.398Z,21.60
2018-03-24T21:16:12.829Z,22.17
2018-03-24T21:18:42.286Z,20.57
2018-03-24T21:21:11.735Z,24.50
2018-03-24T21:23:41.261Z,22.23
2018-03-24T21:26:10.975Z,20.77
2018-03-24T21:28:40.425Z,20.80
2018-03-24T21:31:09.891Z,21.10
2018-03-24T21:33:39.339Z,20.50
2018-03-24T21:36:08.799Z,21.47
2018-03-24T21:38:38.240Z,20.23
2018-03-24T21:41:07.846Z,20.43
2018-03-24T21:43:37.283Z,20.77
2018-03-24T21:46:06.745Z,21.40
2018-03-24T21:48:36.259Z,21.00
2018-03-24T21:51:05.746Z,21.47
2018-03-24T21:53:35.318Z,19.93
2018-03-24T21:56:04.782Z,20.60
2018-03-24T21:58:34.231Z,20.23
2018-03-24T22:01:05.735Z,20.33
2018-03-24T22:03:33.486Z,21.20
2018-03-24T22:06:02.972Z,20.40
2018-03-24T22:08:32.622Z,20.00
2018-03-24T22:11:02.061Z,21.47
2018-03-24T22:13:31.547Z,20.60
2018-03-24T22:16:00.989Z,20.47
2018-03-24T22:18:30.260Z,19.70
2018-03-24T22:20:59.739Z,20.20
2018-03-24T22:23:29.202Z,20.90
2018-03-24T22:25:59.007Z,20.23
2018-03-24T22:28:28.942Z,19.85
2018-03-24T22:30:58.663Z,20.00
2018-03-24T22:33:28.476Z,20.77
2018-03-24T22:35:58.218Z,20.88
2018-03-24T22:38:27.958Z,20.50
2018-03-24T22:40:57.425Z,20.13
2018-03-24T22:43:27.231Z,20.37
2018-03-24T22:45:56.978Z,18.35
2018-03-24T22:48:26.684Z,19.85
2018-03-24T22:50:56.468Z,19.60
2018-03-24T22:53:26.185Z,18.73
2018-03-24T22:55:55.930Z,19.15
2018-03-24T22:58:25.779Z,19.85
2018-03-24T23:00:55.533Z,20.60
2018-03-24T23:03:25.273Z,20.62
2018-03-24T23:05:54.994Z,19.60
2018-03-24T23:08:24.728Z,19.73
2018-03-24T23:10:54.467Z,18.62
2018-03-24T23:13:24.361Z,18.25
2018-03-24T23:15:54.106Z,19.95
2018-03-24T23:18:23.835Z,18.58
2018-03-24T23:20:53.608Z,19.08
2018-03-24T23:23:23.355Z,18.58
2018-03-24T23:25:53.104Z,17.73
2018-03-24T23:28:22.854Z,19.50
2018-03-24T23:30:52.581Z,18.55
2018-03-24T23:33:22.343Z,19.80
2018-03-24T23:35:52.277Z,21.52
2018-03-24T23:38:22.033Z,20.35
2018-03-24T23:40:51.750Z,21.65
2018-03-24T23:43:21.497Z,19.65
2018-03-24T23:45:51.320Z,20.25
2018-03-24T23:48:21.071Z,20.10
2018-03-24T23:50:50.785Z,20.35
2018-03-24T23:53:20.574Z,20.88
2018-03-24T23:55:50.294Z,23.17
2018-03-24T23:58:20.094Z,22.27
